La Manuela, Argentina
Current Conditions -  °F | °C
As of 2:00 AM on Friday 31 Oct 2014 (Local Time) from SAEZ Reporting Station
Clear Clear  
Wind Chill: 63°   Ceiling: Unl
Heat Index: 63°   Visibility: 6mi
Dew Point: 52°   Wind: 7mph
Humidity: 68%   Direction: 90°E
Pressure: 29.88"   Gusts: NA
Location:  36.78°S, 62.17°W
Report Text: SAEZ 310500Z 09006KT CAVOK 17/11 Q1012
Loading
Personal Weather Stations






























Interactive Weather Map
Tropical Storm Tracking
New forecast layout! Learn more

10-Day Weather Forecast

Advertisements
Track Severe Weather on mobile